sensor_id;sensor_type;location;lat;lon;timestamp;temperature;humidity
5061;DHT22;2549;52.128;21.068;2023-07-13T00:01:53;23.90;99.90
5061;DHT22;2549;52.128;21.068;2023-07-13T00:04:22;23.90;99.90
5061;DHT22;2549;52.128;21.068;2023-07-13T00:06:53;23.90;99.90
5061;DHT22;2549;52.128;21.068;2023-07-13T00:09:20;23.90;99.90
5061;DHT22;2549;52.128;21.068;2023-07-13T00:11:53;23.80;99.90
5061;DHT22;2549;52.128;21.068;2023-07-13T00:14:21;23.80;99.90
5061;DHT22;2549;52.128;21.068;2023-07-13T00:16:48;23.80;99.90
5061;DHT22;2549;52.128;21.068;2023-07-13T00:19:15;23.80;99.90
5061;DHT22;2549;52.128;21.068;2023-07-13T00:21:42;23.80;99.90
5061;DHT22;2549;52.128;21.068;2023-07-13T00:24:13;23.80;99.90
5061;DHT22;2549;52.128;21.068;2023-07-13T00:26:40;23.80;99.90
5061;DHT22;2549;52.128;21.068;2023-07-13T00:29:07;23.70;99.90
5061;DHT22;2549;52.128;21.068;2023-07-13T00:31:38;23.70;99.90
5061;DHT22;2549;52.128;21.068;2023-07-13T00:34:05;23.70;99.90
5061;DHT22;2549;52.128;21.068;2023-07-13T00:36:32;23.70;99.90
5061;DHT22;2549;52.128;21.068;2023-07-13T00:38:58;23.70;99.90
5061;DHT22;2549;52.128;21.068;2023-07-13T00:41:25;23.70;99.90
5061;DHT22;2549;52.128;21.068;2023-07-13T00:43:52;23.70;99.90
5061;DHT22;2549;52.128;21.068;2023-07-13T00:46:24;23.70;99.90
5061;DHT22;2549;52.128;21.068;2023-07-13T00:48:53;23.70;99.90
5061;DHT22;2549;52.128;21.068;2023-07-13T00:51:25;23.60;99.90
5061;DHT22;2549;52.128;21.068;2023-07-13T00:53:54;23.60;99.90
5061;DHT22;2549;52.128;21.068;2023-07-13T00:56:23;23.60;99.90
5061;DHT22;2549;52.128;21.068;2023-07-13T00:58:50;23.60;99.90
5061;DHT22;2549;52.128;21.068;2023-07-13T01:01:18;23.60;99.90
5061;DHT22;2549;52.128;21.068;2023-07-13T01:03:45;23.60;99.90
5061;DHT22;2549;52.128;21.068;2023-07-13T01:06:13;23.60;99.90
5061;DHT22;2549;52.128;21.068;2023-07-13T01:08:41;23.60;99.90
5061;DHT22;2549;52.128;21.068;2023-07-13T01:11:07;23.60;99.90
5061;DHT22;2549;52.128;21.068;2023-07-13T01:13:35;23.50;99.90
5061;DHT22;2549;52.128;21.068;2023-07-13T01:16:05;23.50;99.90
5061;DHT22;2549;52.128;21.068;2023-07-13T01:18:38;23.50;99.90
5061;DHT22;2549;52.128;21.068;2023-07-13T01:21:05;23.50;99.90
5061;DHT22;2549;52.128;21.068;2023-07-13T01:23:33;23.50;99.90
5061;DHT22;2549;52.128;21.068;2023-07-13T01:26:00;23.50;99.90
5061;DHT22;2549;52.128;21.068;2023-07-13T01:28:28;23.40;99.90
5061;DHT22;2549;52.128;21.068;2023-07-13T01:30:57;23.40;99.90
5061;DHT22;2549;52.128;21.068;2023-07-13T01:33:25;23.40;99.90
5061;DHT22;2549;52.128;21.068;2023-07-13T01:35:53;23.40;99.90
5061;DHT22;2549;52.128;21.068;2023-07-13T01:38:22;23.40;99.90
5061;DHT22;2549;52.128;21.068;2023-07-13T01:40:50;23.30;99.90
5061;DHT22;2549;52.128;21.068;2023-07-13T01:43:18;23.30;99.90
5061;DHT22;2549;52.128;21.068;2023-07-13T01:45:46;23.30;99.90
5061;DHT22;2549;52.128;21.068;2023-07-13T01:48:13;23.30;99.90
5061;DHT22;2549;52.128;21.068;2023-07-13T01:50:40;23.30;99.90
5061;DHT22;2549;52.128;21.068;2023-07-13T01:53:07;23.30;99.90
5061;DHT22;2549;52.128;21.068;2023-07-13T01:55:35;23.30;99.90
5061;DHT22;2549;52.128;21.068;2023-07-13T01:58:02;23.30;99.90
5061;DHT22;2549;52.128;21.068;2023-07-13T02:00:29;23.30;99.90
5061;DHT22;2549;52.128;21.068;2023-07-13T02:02:56;23.30;99.90
5061;DHT22;2549;52.128;21.068;2023-07-13T02:05:23;23.30;99.90
5061;DHT22;2549;52.128;21.068;2023-07-13T02:07:50;23.30;99.90
5061;DHT22;2549;52.128;21.068;2023-07-13T02:10:17;23.20;99.90
5061;DHT22;2549;52.128;21.068;2023-07-13T02:12:44;23.20;99.90
5061;DHT22;2549;52.128;21.068;2023-07-13T02:15:11;23.30;99.90
5061;DHT22;2549;52.128;21.068;2023-07-13T02:17:38;23.30;99.90
5061;DHT22;2549;52.128;21.068;2023-07-13T02:20:06;23.30;99.90
5061;DHT22;2549;52.128;21.068;2023-07-13T02:22:34;23.30;99.90
5061;DHT22;2549;52.128;21.068;2023-07-13T02:25:01;23.20;99.90
5061;DHT22;2549;52.128;21.068;2023-07-13T02:27:28;23.20;99.90
5061;DHT22;2549;52.128;21.068;2023-07-13T02:29:55;23.20;99.90
5061;DHT22;2549;52.128;21.068;2023-07-13T02:32:22;23.20;99.90
5061;DHT22;2549;52.128;21.068;2023-07-13T02:34:49;23.20;99.90
5061;DHT22;2549;52.128;21.068;2023-07-13T02:37:16;23.20;99.90
5061;DHT22;2549;52.128;21.068;2023-07-13T02:39:43;23.10;99.90
5061;DHT22;2549;52.128;21.068;2023-07-13T02:42:09;23.20;99.90
5061;DHT22;2549;52.128;21.068;2023-07-13T02:44:36;23.20;99.90
5061;DHT22;2549;52.128;21.068;2023-07-13T02:47:03;23.20;99.90
5061;DHT22;2549;52.128;21.068;2023-07-13T02:49:30;23.20;99.90
5061;DHT22;2549;52.128;21.068;2023-07-13T02:51:57;23.20;99.90
5061;DHT22;2549;52.128;21.068;2023-07-13T02:54:24;23.20;99.90
5061;DHT22;2549;52.128;21.068;2023-07-13T02:56:51;23.20;99.90
5061;DHT22;2549;52.128;21.068;2023-07-13T02:59:18;23.20;99.90
5061;DHT22;2549;52.128;21.068;2023-07-13T03:01:44;23.20;99.90
5061;DHT22;2549;52.128;21.068;2023-07-13T03:04:11;23.10;99.90
5061;DHT22;2549;52.128;21.068;2023-07-13T03:06:39;23.10;99.90
5061;DHT22;2549;52.128;21.068;2023-07-13T03:09:06;23.10;99.90
5061;DHT22;2549;52.128;21.068;2023-07-13T03:11:33;23.10;99.90
5061;DHT22;2549;52.128;21.068;2023-07-13T03:14:00;23.10;99.90
5061;DHT22;2549;52.128;21.068;2023-07-13T03:16:26;23.10;99.90
5061;DHT22;2549;52.128;21.068;2023-07-13T03:18:53;23.10;99.90
5061;DHT22;2549;52.128;21.068;2023-07-13T03:21:20;23.10;99.90
5061;DHT22;2549;52.128;21.068;2023-07-13T03:23:47;23.00;99.90
5061;DHT22;2549;52.128;21.068;2023-07-13T03:26:19;23.10;99.90
5061;DHT22;2549;52.128;21.068;2023-07-13T03:28:46;23.10;99.90
5061;DHT22;2549;52.128;21.068;2023-07-13T03:31:19;23.00;99.90
5061;DHT22;2549;52.128;21.068;2023-07-13T03:33:48;23.00;99.90
5061;DHT22;2549;52.128;21.068;2023-07-13T03:36:24;23.00;99.90
5061;DHT22;2549;52.128;21.068;2023-07-13T03:38:54;23.00;99.90
5061;DHT22;2549;52.128;21.068;2023-07-13T03:41:23;23.00;99.90
5061;DHT22;2549;52.128;21.068;2023-07-13T03:43:50;23.00;99.90
5061;DHT22;2549;52.128;21.068;2023-07-13T03:46:17;23.00;99.90
5061;DHT22;2549;52.128;21.068;2023-07-13T03:48:46;23.00;99.90
5061;DHT22;2549;52.128;21.068;2023-07-13T03:51:14;23.00;99.90
5061;DHT22;2549;52.128;21.068;2023-07-13T03:53:43;23.00;99.90
5061;DHT22;2549;52.128;21.068;2023-07-13T03:56:11;23.00;99.90
5061;DHT22;2549;52.128;21.068;2023-07-13T03:58:41;23.00;99.90
5061;DHT22;2549;52.128;21.068;2023-07-13T04:01:10;23.00;99.90
5061;DHT22;2549;52.128;21.068;2023-07-13T04:03:37;23.00;99.90
5061;DHT22;2549;52.128;21.068;2023-07-13T04:06:07;23.10;99.90
5061;DHT22;2549;52.128;21.068;2023-07-13T04:08:36;23.10;99.90
5061;DHT22;2549;52.128;21.068;2023-07-13T04:11:04;23.10;99.90
5061;DHT22;2549;52.128;21.068;2023-07-13T04:13:31;23.10;99.90
5061;DHT22;2549;52.128;21.068;2023-07-13T04:15:58;23.10;99.90
5061;DHT22;2549;52.128;21.068;2023-07-13T04:18:25;23.10;99.90
5061;DHT22;2549;52.128;21.068;2023-07-13T04:20:52;23.20;99.90
5061;DHT22;2549;52.128;21.068;2023-07-13T04:23:19;23.20;99.90
5061;DHT22;2549;52.128;21.068;2023-07-13T04:25:47;23.30;99.90
5061;DHT22;2549;52.128;21.068;2023-07-13T04:28:16;23.40;99.90
5061;DHT22;2549;52.128;21.068;2023-07-13T04:30:44;23.40;99.90
5061;DHT22;2549;52.128;21.068;2023-07-13T04:33:11;23.50;99.90
5061;DHT22;2549;52.128;21.068;2023-07-13T04:35:38;23.60;99.90
5061;DHT22;2549;52.128;21.068;2023-07-13T04:38:05;23.70;99.90
5061;DHT22;2549;52.128;21.068;2023-07-13T04:40:32;23.80;99.90
5061;DHT22;2549;52.128;21.068;2023-07-13T04:42:59;23.80;99.90
5061;DHT22;2549;52.128;21.068;2023-07-13T04:45:26;23.90;99.90
5061;DHT22;2549;52.128;21.068;2023-07-13T04:47:53;23.90;99.90
5061;DHT22;2549;52.128;21.068;2023-07-13T04:50:20;24.00;99.90
5061;DHT22;2549;52.128;21.068;2023-07-13T04:52:52;24.00;99.90
5061;DHT22;2549;52.128;21.068;2023-07-13T04:55:20;24.00;99.90
5061;DHT22;2549;52.128;21.068;2023-07-13T04:57:47;24.00;99.90
5061;DHT22;2549;52.128;21.068;2023-07-13T05:00:14;24.10;99.90
5061;DHT22;2549;52.128;21.068;2023-07-13T05:02:44;24.00;99.90
5061;DHT22;2549;52.128;21.068;2023-07-13T05:05:13;24.10;99.90
5061;DHT22;2549;52.128;21.068;2023-07-13T05:07:40;24.10;99.90
5061;DHT22;2549;52.128;21.068;2023-07-13T05:10:07;24.10;99.90
5061;DHT22;2549;52.128;21.068;2023-07-13T05:12:35;24.10;99.90
5061;DHT22;2549;52.128;21.068;2023-07-13T05:15:03;24.10;99.90
5061;DHT22;2549;52.128;21.068;2023-07-13T05:17:30;24.10;99.90
5061;DHT22;2549;52.128;21.068;2023-07-13T05:19:56;24.20;99.90
5061;DHT22;2549;52.128;21.068;2023-07-13T05:22:23;24.20;99.90
5061;DHT22;2549;52.128;21.068;2023-07-13T05:24:50;24.20;99.90
5061;DHT22;2549;52.128;21.068;2023-07-13T05:27:17;24.20;99.90
5061;DHT22;2549;52.128;21.068;2023-07-13T05:29:44;24.30;99.90
5061;DHT22;2549;52.128;21.068;2023-07-13T05:32:11;24.30;99.90
5061;DHT22;2549;52.128;21.068;2023-07-13T05:34:38;24.30;99.90
5061;DHT22;2549;52.128;21.068;2023-07-13T05:37:05;24.30;99.90
5061;DHT22;2549;52.128;21.068;2023-07-13T05:39:31;24.40;99.90
5061;DHT22;2549;52.128;21.068;2023-07-13T05:41:58;24.40;99.90
5061;DHT22;2549;52.128;21.068;2023-07-13T05:44:25;24.40;99.90
5061;DHT22;2549;52.128;21.068;2023-07-13T05:46:52;24.40;99.90
5061;DHT22;2549;52.128;21.068;2023-07-13T05:49:19;24.40;99.90
5061;DHT22;2549;52.128;21.068;2023-07-13T05:51:46;24.50;99.90
5061;DHT22;2549;52.128;21.068;2023-07-13T05:54:13;24.50;99.90
5061;DHT22;2549;52.128;21.068;2023-07-13T05:56:40;24.60;99.90
5061;DHT22;2549;52.128;21.068;2023-07-13T05:59:06;24.60;99.90
5061;DHT22;2549;52.128;21.068;2023-07-13T06:01:33;24.60;99.90
5061;DHT22;2549;52.128;21.068;2023-07-13T06:04:01;24.70;99.90
5061;DHT22;2549;52.128;21.068;2023-07-13T06:06:28;24.70;99.90
5061;DHT22;2549;52.128;21.068;2023-07-13T06:08:54;24.70;99.90
5061;DHT22;2549;52.128;21.068;2023-07-13T06:11:23;24.80;99.90
5061;DHT22;2549;52.128;21.068;2023-07-13T06:13:50;24.80;99.90
5061;DHT22;2549;52.128;21.068;2023-07-13T06:16:18;24.80;99.90
5061;DHT22;2549;52.128;21.068;2023-07-13T06:18:45;24.90;99.90
5061;DHT22;2549;52.128;21.068;2023-07-13T06:21:17;24.90;99.90
5061;DHT22;2549;52.128;21.068;2023-07-13T06:23:46;24.90;99.90
5061;DHT22;2549;52.128;21.068;2023-07-13T06:26:15;24.90;99.90
5061;DHT22;2549;52.128;21.068;2023-07-13T06:28:42;24.90;99.90
5061;DHT22;2549;52.128;21.068;2023-07-13T06:31:11;24.90;99.90
5061;DHT22;2549;52.128;21.068;2023-07-13T06:33:39;24.90;99.90
5061;DHT22;2549;52.128;21.068;2023-07-13T06:36:07;24.90;99.90
5061;DHT22;2549;52.128;21.068;2023-07-13T06:38:35;24.90;99.90
5061;DHT22;2549;52.128;21.068;2023-07-13T06:41:03;24.90;99.90
5061;DHT22;2549;52.128;21.068;2023-07-13T06:43:30;25.00;99.90
5061;DHT22;2549;52.128;21.068;2023-07-13T06:45:58;24.90;99.90
5061;DHT22;2549;52.128;21.068;2023-07-13T06:48:26;25.00;99.90
5061;DHT22;2549;52.128;21.068;2023-07-13T06:50:53;24.90;99.90
5061;DHT22;2549;52.128;21.068;2023-07-13T06:53:20;24.90;99.90
5061;DHT22;2549;52.128;21.068;2023-07-13T06:55:47;25.00;99.90
5061;DHT22;2549;52.128;21.068;2023-07-13T06:58:18;25.00;99.90
5061;DHT22;2549;52.128;21.068;2023-07-13T07:00:46;25.00;99.90
5061;DHT22;2549;52.128;21.068;2023-07-13T07:03:13;25.00;99.90
5061;DHT22;2549;52.128;21.068;2023-07-13T07:05:40;25.00;99.90
5061;DHT22;2549;52.128;21.068;2023-07-13T07:08:07;25.10;99.90
5061;DHT22;2549;52.128;21.068;2023-07-13T07:10:35;25.10;99.90
5061;DHT22;2549;52.128;21.068;2023-07-13T07:13:02;25.00;99.90
5061;DHT22;2549;52.128;21.068;2023-07-13T07:15:29;25.10;99.90
5061;DHT22;2549;52.128;21.068;2023-07-13T07:17:56;25.10;99.90
5061;DHT22;2549;52.128;21.068;2023-07-13T07:20:23;25.10;99.90
5061;DHT22;2549;52.128;21.068;2023-07-13T07:22:50;25.10;99.90
5061;DHT22;2549;52.128;21.068;2023-07-13T07:25:17;25.10;99.90
5061;DHT22;2549;52.128;21.068;2023-07-13T07:27:45;25.10;99.90
5061;DHT22;2549;52.128;21.068;2023-07-13T07:30:15;25.20;99.90
5061;DHT22;2549;52.128;21.068;2023-07-13T07:32:45;25.20;99.90
5061;DHT22;2549;52.128;21.068;2023-07-13T07:35:14;25.30;99.90
5061;DHT22;2549;52.128;21.068;2023-07-13T07:37:42;25.20;99.90
5061;DHT22;2549;52.128;21.068;2023-07-13T07:40:17;25.20;99.90
5061;DHT22;2549;52.128;21.068;2023-07-13T07:42:47;25.20;99.90
5061;DHT22;2549;52.128;21.068;2023-07-13T07:45:14;25.30;99.90
5061;DHT22;2549;52.128;21.068;2023-07-13T07:47:41;25.30;99.90
5061;DHT22;2549;52.128;21.068;2023-07-13T07:50:09;25.40;99.90
5061;DHT22;2549;52.128;21.068;2023-07-13T07:52:36;25.40;99.90
5061;DHT22;2549;52.128;21.068;2023-07-13T07:55:05;25.50;99.70
5061;DHT22;2549;52.128;21.068;2023-07-13T07:57:35;25.50;98.90
5061;DHT22;2549;52.128;21.068;2023-07-13T08:00:06;25.50;98.90
5061;DHT22;2549;52.128;21.068;2023-07-13T08:02:36;25.50;97.70
5061;DHT22;2549;52.128;21.068;2023-07-13T08:05:06;25.50;98.20
5061;DHT22;2549;52.128;21.068;2023-07-13T08:07:37;25.50;98.60
5061;DHT22;2549;52.128;21.068;2023-07-13T08:10:05;25.60;98.50
5061;DHT22;2549;52.128;21.068;2023-07-13T08:12:39;25.50;97.80
5061;DHT22;2549;52.128;21.068;2023-07-13T08:15:11;25.60;97.00
5061;DHT22;2549;52.128;21.068;2023-07-13T08:17:39;25.60;97.30
5061;DHT22;2549;52.128;21.068;2023-07-13T08:20:06;25.70;97.30
5061;DHT22;2549;52.128;21.068;2023-07-13T08:22:33;25.80;97.40
5061;DHT22;2549;52.128;21.068;2023-07-13T08:25:01;25.80;97.40
5061;DHT22;2549;52.128;21.068;2023-07-13T08:27:28;25.90;97.30
5061;DHT22;2549;52.128;21.068;2023-07-13T08:29:55;25.90;97.50
5061;DHT22;2549;52.128;21.068;2023-07-13T08:32:23;26.00;97.40
5061;DHT22;2549;52.128;21.068;2023-07-13T08:34:51;26.00;97.10
5061;DHT22;2549;52.128;21.068;2023-07-13T08:37:18;26.00;97.00
5061;DHT22;2549;52.128;21.068;2023-07-13T08:39:45;26.10;97.10
5061;DHT22;2549;52.128;21.068;2023-07-13T08:42:28;26.20;97.40
5061;DHT22;2549;52.128;21.068;2023-07-13T08:47:42;26.30;97.80
5061;DHT22;2549;52.128;21.068;2023-07-13T08:50:15;26.40;98.30
5061;DHT22;2549;52.128;21.068;2023-07-13T08:52:46;26.40;98.40
5061;DHT22;2549;52.128;21.068;2023-07-13T08:55:15;26.50;98.20
5061;DHT22;2549;52.128;21.068;2023-07-13T08:57:48;26.50;98.10
5061;DHT22;2549;52.128;21.068;2023-07-13T09:00:15;26.60;97.60
5061;DHT22;2549;52.128;21.068;2023-07-13T09:02:58;26.60;98.00
5061;DHT22;2549;52.128;21.068;2023-07-13T09:05:38;26.80;98.10
5061;DHT22;2549;52.128;21.068;2023-07-13T09:14:13;26.80;98.40
5061;DHT22;2549;52.128;21.068;2023-07-13T09:16:46;26.90;98.10
5061;DHT22;2549;52.128;21.068;2023-07-13T09:19:28;27.00;98.20
5061;DHT22;2549;52.128;21.068;2023-07-13T09:22:00;27.00;97.90
5061;DHT22;2549;52.128;21.068;2023-07-13T09:27:17;27.20;98.30
5061;DHT22;2549;52.128;21.068;2023-07-13T09:29:49;27.20;98.10
5061;DHT22;2549;52.128;21.068;2023-07-13T09:32:21;27.20;98.30
5061;DHT22;2549;52.128;21.068;2023-07-13T09:34:53;27.20;98.50
5061;DHT22;2549;52.128;21.068;2023-07-13T09:37:26;27.30;98.40
5061;DHT22;2549;52.128;21.068;2023-07-13T09:39:55;27.20;97.60
5061;DHT22;2549;52.128;21.068;2023-07-13T09:42:25;27.20;97.80
5061;DHT22;2549;52.128;21.068;2023-07-13T09:44:54;27.30;98.00
5061;DHT22;2549;52.128;21.068;2023-07-13T09:50:01;27.40;96.70
5061;DHT22;2549;52.128;21.068;2023-07-13T09:52:47;27.40;97.00
5061;DHT22;2549;52.128;21.068;2023-07-13T09:55:39;27.40;96.70
5061;DHT22;2549;52.128;21.068;2023-07-13T09:58:13;27.40;96.70
5061;DHT22;2549;52.128;21.068;2023-07-13T10:00:58;27.50;96.60
5061;DHT22;2549;52.128;21.068;2023-07-13T10:03:28;27.50;96.30
5061;DHT22;2549;52.128;21.068;2023-07-13T10:06:09;27.50;96.50
5061;DHT22;2549;52.128;21.068;2023-07-13T10:08:37;27.60;96.20
5061;DHT22;2549;52.128;21.068;2023-07-13T10:11:17;27.60;95.60
5061;DHT22;2549;52.128;21.068;2023-07-13T10:13:51;27.70;95.50
5061;DHT22;2549;52.128;21.068;2023-07-13T10:16:17;27.70;95.30
5061;DHT22;2549;52.128;21.068;2023-07-13T10:18:50;27.60;95.30
5061;DHT22;2549;52.128;21.068;2023-07-13T10:21:20;27.50;93.80
5061;DHT22;2549;52.128;21.068;2023-07-13T10:24:35;27.40;93.40
5061;DHT22;2549;52.128;21.068;2023-07-13T10:27:16;27.20;92.80
5061;DHT22;2549;52.128;21.068;2023-07-13T10:32:15;27.00;92.80
5061;DHT22;2549;52.128;21.068;2023-07-13T10:34:46;27.00;92.90
5061;DHT22;2549;52.128;21.068;2023-07-13T10:37:21;26.90;92.60
5061;DHT22;2549;52.128;21.068;2023-07-13T10:39:50;26.80;92.60
5061;DHT22;2549;52.128;21.068;2023-07-13T10:42:29;26.80;92.70
5061;DHT22;2549;52.128;21.068;2023-07-13T10:44:57;26.80;95.10
5061;DHT22;2549;52.128;21.068;2023-07-13T10:47:24;26.70;98.50
5061;DHT22;2549;52.128;21.068;2023-07-13T10:49:56;26.60;99.30
5061;DHT22;2549;52.128;21.068;2023-07-13T10:52:49;26.40;99.90
5061;DHT22;2549;52.128;21.068;2023-07-13T10:58:36;26.00;98.60
5061;DHT22;2549;52.128;21.068;2023-07-13T11:03:35;25.70;99.60
5061;DHT22;2549;52.128;21.068;2023-07-13T11:06:28;25.60;99.90
5061;DHT22;2549;52.128;21.068;2023-07-13T11:08:58;25.40;99.90
5061;DHT22;2549;52.128;21.068;2023-07-13T11:11:33;25.10;99.90
5061;DHT22;2549;52.128;21.068;2023-07-13T11:14:04;24.80;99.90
5061;DHT22;2549;52.128;21.068;2023-07-13T11:16:37;24.50;99.90
5061;DHT22;2549;52.128;21.068;2023-07-13T11:19:21;24.00;99.90
5061;DHT22;2549;52.128;21.068;2023-07-13T11:24:58;23.30;99.90
5061;DHT22;2549;52.128;21.068;2023-07-13T11:27:40;23.20;99.90
5061;DHT22;2549;52.128;21.068;2023-07-13T11:33:13;23.00;99.90
5061;DHT22;2549;52.128;21.068;2023-07-13T11:36:35;22.90;99.90
5061;DHT22;2549;52.128;21.068;2023-07-13T11:38:39;22.90;99.90
5061;DHT22;2549;52.128;21.068;2023-07-13T11:41:23;22.90;99.90
5061;DHT22;2549;52.128;21.068;2023-07-13T11:44:01;22.90;99.90
5061;DHT22;2549;52.128;21.068;2023-07-13T11:46:29;22.90;99.90
5061;DHT22;2549;52.128;21.068;2023-07-13T11:48:56;23.00;99.90
5061;DHT22;2549;52.128;21.068;2023-07-13T11:51:31;23.00;99.90
5061;DHT22;2549;52.128;21.068;2023-07-13T11:54:05;23.10;99.90
5061;DHT22;2549;52.128;21.068;2023-07-13T11:56:34;23.20;99.90
5061;DHT22;2549;52.128;21.068;2023-07-13T11:59:07;23.30;99.90
5061;DHT22;2549;52.128;21.068;2023-07-13T12:01:43;23.40;99.90
5061;DHT22;2549;52.128;21.068;2023-07-13T12:04:32;23.50;99.90
5061;DHT22;2549;52.128;21.068;2023-07-13T12:07:18;23.50;99.90
5061;DHT22;2549;52.128;21.068;2023-07-13T12:09:45;23.50;99.90
5061;DHT22;2549;52.128;21.068;2023-07-13T12:12:14;23.60;99.90
5061;DHT22;2549;52.128;21.068;2023-07-13T12:14:41;23.60;99.90
5061;DHT22;2549;52.128;21.068;2023-07-13T12:17:28;23.60;99.90
5061;DHT22;2549;52.128;21.068;2023-07-13T12:19:55;23.70;99.90
5061;DHT22;2549;52.128;21.068;2023-07-13T12:22:23;23.70;99.90
5061;DHT22;2549;52.128;21.068;2023-07-13T12:24:51;23.70;99.90
5061;DHT22;2549;52.128;21.068;2023-07-13T12:27:26;23.70;99.90
5061;DHT22;2549;52.128;21.068;2023-07-13T12:30:02;23.70;99.90
5061;DHT22;2549;52.128;21.068;2023-07-13T12:32:32;23.70;99.90
5061;DHT22;2549;52.128;21.068;2023-07-13T12:35:15;23.70;99.90
5061;DHT22;2549;52.128;21.068;2023-07-13T12:37:44;23.80;99.90
5061;DHT22;2549;52.128;21.068;2023-07-13T12:40:17;23.80;99.90
5061;DHT22;2549;52.128;21.068;2023-07-13T12:42:52;23.80;99.90
5061;DHT22;2549;52.128;21.068;2023-07-13T12:45:24;23.90;99.90
5061;DHT22;2549;52.128;21.068;2023-07-13T12:48:10;23.90;99.90
5061;DHT22;2549;52.128;21.068;2023-07-13T12:50:41;24.00;99.90
5061;DHT22;2549;52.128;21.068;2023-07-13T12:53:13;24.00;99.90
5061;DHT22;2549;52.128;21.068;2023-07-13T12:55:50;24.10;99.90
5061;DHT22;2549;52.128;21.068;2023-07-13T12:58:28;24.10;99.90
5061;DHT22;2549;52.128;21.068;2023-07-13T13:00:58;24.10;99.90
5061;DHT22;2549;52.128;21.068;2023-07-13T13:03:37;24.10;99.90
5061;DHT22;2549;52.128;21.068;2023-07-13T13:06:25;24.10;99.90
5061;DHT22;2549;52.128;21.068;2023-07-13T13:08:56;24.10;99.90
5061;DHT22;2549;52.128;21.068;2023-07-13T13:11:29;24.10;99.90
5061;DHT22;2549;52.128;21.068;2023-07-13T13:13:57;24.10;99.90
5061;DHT22;2549;52.128;21.068;2023-07-13T13:16:37;24.10;99.90
5061;DHT22;2549;52.128;21.068;2023-07-13T13:19:21;24.10;99.90
5061;DHT22;2549;52.128;21.068;2023-07-13T13:21:52;24.20;99.90
5061;DHT22;2549;52.128;21.068;2023-07-13T13:24:22;24.20;99.90
5061;DHT22;2549;52.128;21.068;2023-07-13T13:26:51;24.20;99.90
5061;DHT22;2549;52.128;21.068;2023-07-13T13:29:23;24.20;99.90
5061;DHT22;2549;52.128;21.068;2023-07-13T13:31:52;24.20;99.90
5061;DHT22;2549;52.128;21.068;2023-07-13T13:34:20;24.10;99.90
5061;DHT22;2549;52.128;21.068;2023-07-13T13:36:51;24.10;99.90
5061;DHT22;2549;52.128;21.068;2023-07-13T13:39:35;24.10;99.90
5061;DHT22;2549;52.128;21.068;2023-07-13T13:42:03;24.20;99.90
5061;DHT22;2549;52.128;21.068;2023-07-13T13:44:31;24.20;99.90
5061;DHT22;2549;52.128;21.068;2023-07-13T13:46:58;24.20;99.90
5061;DHT22;2549;52.128;21.068;2023-07-13T13:49:26;24.20;99.90
5061;DHT22;2549;52.128;21.068;2023-07-13T13:51:54;24.20;99.90
5061;DHT22;2549;52.128;21.068;2023-07-13T13:54:23;24.20;99.90
5061;DHT22;2549;52.128;21.068;2023-07-13T13:56:51;24.20;99.90
5061;DHT22;2549;52.128;21.068;2023-07-13T13:59:19;24.20;99.90
5061;DHT22;2549;52.128;21.068;2023-07-13T14:01:47;24.20;99.90
5061;DHT22;2549;52.128;21.068;2023-07-13T14:04:20;24.20;99.90
5061;DHT22;2549;52.128;21.068;2023-07-13T14:06:48;24.20;99.90
5061;DHT22;2549;52.128;21.068;2023-07-13T14:09:17;24.20;99.90
5061;DHT22;2549;52.128;21.068;2023-07-13T14:11:46;24.20;99.90
5061;DHT22;2549;52.128;21.068;2023-07-13T14:14:22;24.20;99.90
5061;DHT22;2549;52.128;21.068;2023-07-13T14:16:51;24.20;99.90
5061;DHT22;2549;52.128;21.068;2023-07-13T14:19:22;24.10;99.90
5061;DHT22;2549;52.128;21.068;2023-07-13T14:21:49;24.20;99.90
5061;DHT22;2549;52.128;21.068;2023-07-13T14:24:19;24.20;99.90
5061;DHT22;2549;52.128;21.068;2023-07-13T14:26:47;24.20;99.90
5061;DHT22;2549;52.128;21.068;2023-07-13T14:29:17;24.20;99.90
5061;DHT22;2549;52.128;21.068;2023-07-13T14:31:49;24.20;99.90
5061;DHT22;2549;52.128;21.068;2023-07-13T14:34:15;24.20;99.90
5061;DHT22;2549;52.128;21.068;2023-07-13T14:36:45;24.10;99.90
5061;DHT22;2549;52.128;21.068;2023-07-13T14:39:16;24.10;99.90
5061;DHT22;2549;52.128;21.068;2023-07-13T14:41:44;24.00;99.90
5061;DHT22;2549;52.128;21.068;2023-07-13T14:44:15;24.00;99.90
5061;DHT22;2549;52.128;21.068;2023-07-13T14:46:44;24.10;99.90
5061;DHT22;2549;52.128;21.068;2023-07-13T14:49:27;24.10;99.90
5061;DHT22;2549;52.128;21.068;2023-07-13T14:51:56;24.10;99.90
5061;DHT22;2549;52.128;21.068;2023-07-13T14:54:24;24.10;99.90
5061;DHT22;2549;52.128;21.068;2023-07-13T14:56:51;24.10;99.90
5061;DHT22;2549;52.128;21.068;2023-07-13T14:59:18;24.10;99.90
5061;DHT22;2549;52.128;21.068;2023-07-13T15:01:49;24.10;99.90
5061;DHT22;2549;52.128;21.068;2023-07-13T15:04:16;24.10;99.90
5061;DHT22;2549;52.128;21.068;2023-07-13T15:07:00;24.10;99.90
5061;DHT22;2549;52.128;21.068;2023-07-13T15:09:28;24.10;99.90
5061;DHT22;2549;52.128;21.068;2023-07-13T15:11:58;24.10;99.90
5061;DHT22;2549;52.128;21.068;2023-07-13T15:14:26;24.10;99.90
5061;DHT22;2549;52.128;21.068;2023-07-13T15:16:56;24.00;99.90
5061;DHT22;2549;52.128;21.068;2023-07-13T15:19:23;24.00;99.90
5061;DHT22;2549;52.128;21.068;2023-07-13T15:21:54;24.00;99.90
5061;DHT22;2549;52.128;21.068;2023-07-13T15:24:21;24.00;99.90
5061;DHT22;2549;52.128;21.068;2023-07-13T15:26:48;24.00;99.90
5061;DHT22;2549;52.128;21.068;2023-07-13T15:29:16;24.00;99.90
5061;DHT22;2549;52.128;21.068;2023-07-13T15:31:44;24.00;99.90
5061;DHT22;2549;52.128;21.068;2023-07-13T15:34:15;24.00;99.90
5061;DHT22;2549;52.128;21.068;2023-07-13T15:36:43;24.00;99.90
5061;DHT22;2549;52.128;21.068;2023-07-13T15:39:15;24.00;99.90
5061;DHT22;2549;52.128;21.068;2023-07-13T15:41:44;23.90;99.90
5061;DHT22;2549;52.128;21.068;2023-07-13T15:44:40;23.90;99.90
5061;DHT22;2549;52.128;21.068;2023-07-13T15:47:11;23.90;99.90
5061;DHT22;2549;52.128;21.068;2023-07-13T15:49:39;23.90;99.90
5061;DHT22;2549;52.128;21.068;2023-07-13T15:52:18;23.90;99.90
5061;DHT22;2549;52.128;21.068;2023-07-13T15:54:47;23.80;99.90
5061;DHT22;2549;52.128;21.068;2023-07-13T15:57:14;23.80;99.90
5061;DHT22;2549;52.128;21.068;2023-07-13T15:59:42;23.80;99.90
5061;DHT22;2549;52.128;21.068;2023-07-13T16:02:16;23.80;99.90
5061;DHT22;2549;52.128;21.068;2023-07-13T16:04:43;23.80;99.90
5061;DHT22;2549;52.128;21.068;2023-07-13T16:07:11;23.80;99.90
5061;DHT22;2549;52.128;21.068;2023-07-13T16:09:39;23.80;99.90
5061;DHT22;2549;52.128;21.068;2023-07-13T16:12:11;23.70;99.90
5061;DHT22;2549;52.128;21.068;2023-07-13T16:14:40;23.70;99.90
5061;DHT22;2549;52.128;21.068;2023-07-13T16:17:10;23.70;99.90
5061;DHT22;2549;52.128;21.068;2023-07-13T16:19:38;23.70;99.90
5061;DHT22;2549;52.128;21.068;2023-07-13T16:22:08;23.70;99.90
5061;DHT22;2549;52.128;21.068;2023-07-13T16:24:40;23.70;99.90
5061;DHT22;2549;52.128;21.068;2023-07-13T16:27:08;23.70;99.90
5061;DHT22;2549;52.128;21.068;2023-07-13T16:29:35;23.70;99.90
5061;DHT22;2549;52.128;21.068;2023-07-13T16:34:40;23.70;99.90